sensor_id;sensor_type;location;lat;lon;timestamp;P1;durP1;ratioP1;P2;durP2;ratioP2
13421;SDS011;6782;55.904;13.396;2023-03-23T00:02:40;40.67;;;28.13;;
13421;SDS011;6782;55.904;13.396;2023-03-23T00:05:29;38.30;;;29.77;;
13421;SDS011;6782;55.904;13.396;2023-03-23T00:08:26;37.67;;;28.50;;
13421;SDS011;6782;55.904;13.396;2023-03-23T00:11:13;37.27;;;28.63;;
13421;SDS011;6782;55.904;13.396;2023-03-23T00:14:01;40.47;;;28.10;;
13421;SDS011;6782;55.904;13.396;2023-03-23T00:16:51;38.20;;;26.73;;
13421;SDS011;6782;55.904;13.396;2023-03-23T00:19:38;36.13;;;26.43;;
13421;SDS011;6782;55.904;13.396;2023-03-23T00:22:31;38.20;;;28.03;;
13421;SDS011;6782;55.904;13.396;2023-03-23T00:25:23;32.07;;;26.17;;
13421;SDS011;6782;55.904;13.396;2023-03-23T00:28:10;36.77;;;27.40;;
13421;SDS011;6782;55.904;13.396;2023-03-23T00:30:58;39.07;;;28.73;;
13421;SDS011;6782;55.904;13.396;2023-03-23T00:33:48;39.07;;;28.47;;
13421;SDS011;6782;55.904;13.396;2023-03-23T00:36:35;35.10;;;27.80;;
13421;SDS011;6782;55.904;13.396;2023-03-23T00:39:28;36.57;;;27.67;;
13421;SDS011;6782;55.904;13.396;2023-03-23T00:42:15;35.07;;;28.53;;
13421;SDS011;6782;55.904;13.396;2023-03-23T00:45:03;35.27;;;27.17;;
13421;SDS011;6782;55.904;13.396;2023-03-23T00:47:55;34.17;;;26.53;;
13421;SDS011;6782;55.904;13.396;2023-03-23T00:50:49;34.47;;;27.17;;
13421;SDS011;6782;55.904;13.396;2023-03-23T00:53:36;36.63;;;28.70;;
13421;SDS011;6782;55.904;13.396;2023-03-23T00:56:24;42.13;;;29.23;;
13421;SDS011;6782;55.904;13.396;2023-03-23T00:59:12;41.23;;;29.97;;
13421;SDS011;6782;55.904;13.396;2023-03-23T01:01:59;39.83;;;29.43;;
13421;SDS011;6782;55.904;13.396;2023-03-23T01:04:46;39.47;;;28.07;;
13421;SDS011;6782;55.904;13.396;2023-03-23T01:07:39;42.13;;;28.77;;
13421;SDS011;6782;55.904;13.396;2023-03-23T01:10:26;40.50;;;29.63;;
13421;SDS011;6782;55.904;13.396;2023-03-23T01:13:18;44.33;;;31.57;;
13421;SDS011;6782;55.904;13.396;2023-03-23T01:16:05;40.23;;;30.03;;
13421;SDS011;6782;55.904;13.396;2023-03-23T01:18:53;36.03;;;27.17;;
13421;SDS011;6782;55.904;13.396;2023-03-23T01:21:40;40.20;;;30.20;;
13421;SDS011;6782;55.904;13.396;2023-03-23T01:24:29;45.73;;;31.40;;
13421;SDS011;6782;55.904;13.396;2023-03-23T01:27:17;46.10;;;31.40;;
13421;SDS011;6782;55.904;13.396;2023-03-23T01:30:06;37.33;;;28.90;;
13421;SDS011;6782;55.904;13.396;2023-03-23T01:32:53;42.43;;;30.77;;
13421;SDS011;6782;55.904;13.396;2023-03-23T01:35:41;42.60;;;30.93;;
13421;SDS011;6782;55.904;13.396;2023-03-23T01:38:28;44.17;;;31.13;;
13421;SDS011;6782;55.904;13.396;2023-03-23T01:41:18;38.93;;;31.50;;
13421;SDS011;6782;55.904;13.396;2023-03-23T01:44:07;40.67;;;30.73;;
13421;SDS011;6782;55.904;13.396;2023-03-23T01:46:54;40.60;;;30.47;;
13421;SDS011;6782;55.904;13.396;2023-03-23T01:49:42;45.07;;;31.70;;
13421;SDS011;6782;55.904;13.396;2023-03-23T01:52:31;38.20;;;30.30;;
13421;SDS011;6782;55.904;13.396;2023-03-23T01:55:19;40.63;;;33.00;;
13421;SDS011;6782;55.904;13.396;2023-03-23T01:58:11;40.90;;;30.57;;
13421;SDS011;6782;55.904;13.396;2023-03-23T02:00:59;41.43;;;30.23;;
13421;SDS011;6782;55.904;13.396;2023-03-23T02:03:49;42.30;;;31.07;;
13421;SDS011;6782;55.904;13.396;2023-03-23T02:06:36;40.37;;;31.20;;
13421;SDS011;6782;55.904;13.396;2023-03-23T02:09:24;40.13;;;31.60;;
13421;SDS011;6782;55.904;13.396;2023-03-23T02:12:11;42.77;;;31.90;;
13421;SDS011;6782;55.904;13.396;2023-03-23T02:14:59;43.77;;;34.03;;
13421;SDS011;6782;55.904;13.396;2023-03-23T02:17:48;47.43;;;34.70;;
13421;SDS011;6782;55.904;13.396;2023-03-23T02:20:52;47.77;;;35.23;;
13421;SDS011;6782;55.904;13.396;2023-03-23T02:24:01;47.60;;;34.47;;
13421;SDS011;6782;55.904;13.396;2023-03-23T02:26:53;46.17;;;31.93;;
13421;SDS011;6782;55.904;13.396;2023-03-23T02:29:50;46.17;;;33.90;;
13421;SDS011;6782;55.904;13.396;2023-03-23T02:32:49;44.53;;;32.80;;
13421;SDS011;6782;55.904;13.396;2023-03-23T02:35:44;44.00;;;33.07;;
13421;SDS011;6782;55.904;13.396;2023-03-23T02:38:34;47.73;;;31.40;;
13421;SDS011;6782;55.904;13.396;2023-03-23T02:41:24;43.07;;;32.13;;
13421;SDS011;6782;55.904;13.396;2023-03-23T02:44:16;43.10;;;31.20;;
13421;SDS011;6782;55.904;13.396;2023-03-23T02:47:04;49.23;;;34.03;;
13421;SDS011;6782;55.904;13.396;2023-03-23T02:49:53;44.00;;;31.93;;
13421;SDS011;6782;55.904;13.396;2023-03-23T02:52:42;46.20;;;32.23;;
13421;SDS011;6782;55.904;13.396;2023-03-23T02:55:30;45.50;;;30.77;;
13421;SDS011;6782;55.904;13.396;2023-03-23T02:58:18;43.23;;;32.27;;
13421;SDS011;6782;55.904;13.396;2023-03-23T03:01:16;45.17;;;31.17;;
13421;SDS011;6782;55.904;13.396;2023-03-23T03:04:06;39.67;;;29.27;;
13421;SDS011;6782;55.904;13.396;2023-03-23T03:07:00;41.13;;;29.93;;
13421;SDS011;6782;55.904;13.396;2023-03-23T03:09:50;42.90;;;30.43;;
13421;SDS011;6782;55.904;13.396;2023-03-23T03:12:43;42.80;;;31.57;;
13421;SDS011;6782;55.904;13.396;2023-03-23T03:15:33;43.07;;;31.50;;
13421;SDS011;6782;55.904;13.396;2023-03-23T03:18:24;46.20;;;32.43;;
13421;SDS011;6782;55.904;13.396;2023-03-23T03:21:12;39.93;;;30.77;;
13421;SDS011;6782;55.904;13.396;2023-03-23T03:24:01;42.27;;;31.40;;
13421;SDS011;6782;55.904;13.396;2023-03-23T03:26:52;45.80;;;31.67;;
13421;SDS011;6782;55.904;13.396;2023-03-23T03:29:44;40.47;;;29.63;;
13421;SDS011;6782;55.904;13.396;2023-03-23T03:32:34;41.40;;;29.73;;
13421;SDS011;6782;55.904;13.396;2023-03-23T03:35:24;38.57;;;28.93;;
13421;SDS011;6782;55.904;13.396;2023-03-23T03:38:11;41.30;;;30.07;;
13421;SDS011;6782;55.904;13.396;2023-03-23T03:41:00;40.27;;;30.90;;
13421;SDS011;6782;55.904;13.396;2023-03-23T03:43:49;42.13;;;31.80;;
13421;SDS011;6782;55.904;13.396;2023-03-23T03:46:36;46.63;;;32.40;;
13421;SDS011;6782;55.904;13.396;2023-03-23T03:49:24;45.50;;;31.23;;
13421;SDS011;6782;55.904;13.396;2023-03-23T03:52:11;43.47;;;32.10;;
13421;SDS011;6782;55.904;13.396;2023-03-23T03:54:58;41.20;;;29.67;;
13421;SDS011;6782;55.904;13.396;2023-03-23T03:57:45;42.20;;;29.33;;
13421;SDS011;6782;55.904;13.396;2023-03-23T04:00:34;37.87;;;26.80;;
13421;SDS011;6782;55.904;13.396;2023-03-23T04:03:20;37.50;;;27.83;;
13421;SDS011;6782;55.904;13.396;2023-03-23T04:06:08;35.33;;;27.23;;
13421;SDS011;6782;55.904;13.396;2023-03-23T04:08:56;42.87;;;29.83;;
13421;SDS011;6782;55.904;13.396;2023-03-23T04:11:44;43.03;;;29.50;;
13421;SDS011;6782;55.904;13.396;2023-03-23T04:14:31;42.83;;;31.87;;
13421;SDS011;6782;55.904;13.396;2023-03-23T04:17:20;47.40;;;33.27;;
13421;SDS011;6782;55.904;13.396;2023-03-23T04:20:17;47.63;;;33.40;;
13421;SDS011;6782;55.904;13.396;2023-03-23T04:23:04;43.77;;;32.40;;
13421;SDS011;6782;55.904;13.396;2023-03-23T04:25:52;45.53;;;33.83;;
13421;SDS011;6782;55.904;13.396;2023-03-23T04:28:42;46.67;;;31.03;;
13421;SDS011;6782;55.904;13.396;2023-03-23T04:31:29;43.27;;;30.83;;
13421;SDS011;6782;55.904;13.396;2023-03-23T04:34:19;47.00;;;31.37;;
13421;SDS011;6782;55.904;13.396;2023-03-23T04:37:07;42.57;;;30.40;;
13421;SDS011;6782;55.904;13.396;2023-03-23T04:39:55;43.00;;;31.10;;
13421;SDS011;6782;55.904;13.396;2023-03-23T04:42:46;47.30;;;31.53;;
13421;SDS011;6782;55.904;13.396;2023-03-23T04:45:34;41.63;;;29.13;;
13421;SDS011;6782;55.904;13.396;2023-03-23T04:48:27;43.87;;;31.67;;
13421;SDS011;6782;55.904;13.396;2023-03-23T04:51:18;44.20;;;30.37;;
13421;SDS011;6782;55.904;13.396;2023-03-23T04:54:05;40.57;;;30.70;;
13421;SDS011;6782;55.904;13.396;2023-03-23T04:56:52;40.23;;;29.37;;
13421;SDS011;6782;55.904;13.396;2023-03-23T04:59:40;44.07;;;31.40;;
13421;SDS011;6782;55.904;13.396;2023-03-23T05:02:27;42.30;;;30.93;;
13421;SDS011;6782;55.904;13.396;2023-03-23T05:05:15;44.60;;;29.97;;
13421;SDS011;6782;55.904;13.396;2023-03-23T05:08:05;44.03;;;31.27;;
13421;SDS011;6782;55.904;13.396;2023-03-23T05:10:52;44.50;;;31.53;;
13421;SDS011;6782;55.904;13.396;2023-03-23T05:13:40;47.93;;;33.10;;
13421;SDS011;6782;55.904;13.396;2023-03-23T05:16:29;51.20;;;34.37;;
13421;SDS011;6782;55.904;13.396;2023-03-23T05:19:17;48.70;;;34.57;;
13421;SDS011;6782;55.904;13.396;2023-03-23T05:22:04;47.93;;;31.77;;
13421;SDS011;6782;55.904;13.396;2023-03-23T05:24:55;49.43;;;34.00;;
13421;SDS011;6782;55.904;13.396;2023-03-23T05:27:43;48.30;;;35.17;;
13421;SDS011;6782;55.904;13.396;2023-03-23T05:30:34;52.80;;;35.93;;
13421;SDS011;6782;55.904;13.396;2023-03-23T05:33:24;57.00;;;37.77;;
13421;SDS011;6782;55.904;13.396;2023-03-23T05:36:11;55.63;;;37.60;;
13421;SDS011;6782;55.904;13.396;2023-03-23T05:38:58;53.73;;;38.37;;
13421;SDS011;6782;55.904;13.396;2023-03-23T05:41:51;55.40;;;36.87;;
13421;SDS011;6782;55.904;13.396;2023-03-23T05:44:38;56.00;;;36.00;;
13421;SDS011;6782;55.904;13.396;2023-03-23T05:47:25;57.23;;;38.47;;
13421;SDS011;6782;55.904;13.396;2023-03-23T05:50:12;56.30;;;37.17;;
13421;SDS011;6782;55.904;13.396;2023-03-23T05:53:00;49.57;;;36.87;;
13421;SDS011;6782;55.904;13.396;2023-03-23T05:55:47;53.53;;;39.27;;
13421;SDS011;6782;55.904;13.396;2023-03-23T05:58:36;50.47;;;36.83;;
13421;SDS011;6782;55.904;13.396;2023-03-23T06:01:23;49.83;;;35.07;;
13421;SDS011;6782;55.904;13.396;2023-03-23T06:04:12;49.03;;;35.40;;
13421;SDS011;6782;55.904;13.396;2023-03-23T06:07:00;48.30;;;36.53;;
13421;SDS011;6782;55.904;13.396;2023-03-23T06:09:48;50.93;;;34.77;;
13421;SDS011;6782;55.904;13.396;2023-03-23T06:12:39;48.33;;;34.50;;
13421;SDS011;6782;55.904;13.396;2023-03-23T06:15:32;47.00;;;34.87;;
13421;SDS011;6782;55.904;13.396;2023-03-23T06:18:21;45.80;;;32.87;;
13421;SDS011;6782;55.904;13.396;2023-03-23T06:21:09;44.17;;;32.70;;
13421;SDS011;6782;55.904;13.396;2023-03-23T06:23:56;45.87;;;31.97;;
13421;SDS011;6782;55.904;13.396;2023-03-23T06:26:44;45.27;;;33.27;;
13421;SDS011;6782;55.904;13.396;2023-03-23T06:29:33;41.07;;;31.37;;
13421;SDS011;6782;55.904;13.396;2023-03-23T06:32:21;41.13;;;30.80;;
13421;SDS011;6782;55.904;13.396;2023-03-23T06:35:09;41.17;;;30.10;;
13421;SDS011;6782;55.904;13.396;2023-03-23T06:37:56;39.93;;;29.30;;
13421;SDS011;6782;55.904;13.396;2023-03-23T06:40:46;37.37;;;28.30;;
13421;SDS011;6782;55.904;13.396;2023-03-23T06:43:34;37.03;;;27.37;;
13421;SDS011;6782;55.904;13.396;2023-03-23T06:46:23;35.33;;;25.83;;
13421;SDS011;6782;55.904;13.396;2023-03-23T06:49:13;30.87;;;24.50;;
13421;SDS011;6782;55.904;13.396;2023-03-23T06:52:02;29.30;;;22.47;;
13421;SDS011;6782;55.904;13.396;2023-03-23T06:54:49;30.43;;;22.47;;
13421;SDS011;6782;55.904;13.396;2023-03-23T06:57:38;28.20;;;21.67;;
13421;SDS011;6782;55.904;13.396;2023-03-23T07:00:26;28.93;;;21.10;;
13421;SDS011;6782;55.904;13.396;2023-03-23T07:03:13;24.60;;;21.23;;
13421;SDS011;6782;55.904;13.396;2023-03-23T07:06:03;26.67;;;20.77;;
13421;SDS011;6782;55.904;13.396;2023-03-23T07:08:51;29.33;;;20.93;;
13421;SDS011;6782;55.904;13.396;2023-03-23T07:11:38;27.40;;;21.20;;
13421;SDS011;6782;55.904;13.396;2023-03-23T07:14:25;29.87;;;21.43;;
13421;SDS011;6782;55.904;13.396;2023-03-23T07:17:14;26.17;;;19.80;;
13421;SDS011;6782;55.904;13.396;2023-03-23T07:20:03;32.30;;;21.37;;
13421;SDS011;6782;55.904;13.396;2023-03-23T07:23:05;27.57;;;19.57;;
13421;SDS011;6782;55.904;13.396;2023-03-23T07:25:52;27.30;;;20.20;;
13421;SDS011;6782;55.904;13.396;2023-03-23T07:28:39;28.60;;;19.10;;
13421;SDS011;6782;55.904;13.396;2023-03-23T07:31:27;23.57;;;18.50;;
13421;SDS011;6782;55.904;13.396;2023-03-23T07:34:20;26.57;;;19.70;;
13421;SDS011;6782;55.904;13.396;2023-03-23T07:37:08;22.93;;;18.63;;
13421;SDS011;6782;55.904;13.396;2023-03-23T07:39:58;23.60;;;19.10;;
13421;SDS011;6782;55.904;13.396;2023-03-23T07:42:51;20.50;;;17.87;;
13421;SDS011;6782;55.904;13.396;2023-03-23T07:45:38;20.37;;;17.03;;
13421;SDS011;6782;55.904;13.396;2023-03-23T07:48:26;20.03;;;17.23;;
13421;SDS011;6782;55.904;13.396;2023-03-23T07:51:13;21.40;;;17.27;;
13421;SDS011;6782;55.904;13.396;2023-03-23T07:54:01;19.77;;;16.80;;
13421;SDS011;6782;55.904;13.396;2023-03-23T07:56:52;23.37;;;16.77;;
13421;SDS011;6782;55.904;13.396;2023-03-23T07:59:39;20.50;;;16.37;;
13421;SDS011;6782;55.904;13.396;2023-03-23T08:02:26;20.97;;;15.93;;
13421;SDS011;6782;55.904;13.396;2023-03-23T08:05:13;17.87;;;16.07;;
13421;SDS011;6782;55.904;13.396;2023-03-23T08:08:01;17.97;;;14.90;;
13421;SDS011;6782;55.904;13.396;2023-03-23T08:10:48;16.50;;;13.00;;
13421;SDS011;6782;55.904;13.396;2023-03-23T08:13:37;15.20;;;12.97;;
13421;SDS011;6782;55.904;13.396;2023-03-23T08:16:25;15.27;;;12.97;;
13421;SDS011;6782;55.904;13.396;2023-03-23T08:19:13;16.13;;;12.77;;
13421;SDS011;6782;55.904;13.396;2023-03-23T08:22:00;14.70;;;12.60;;
13421;SDS011;6782;55.904;13.396;2023-03-23T08:24:47;13.27;;;11.77;;
13421;SDS011;6782;55.904;13.396;2023-03-23T08:27:34;12.60;;;11.40;;
13421;SDS011;6782;55.904;13.396;2023-03-23T08:30:22;11.60;;;9.47;;
13421;SDS011;6782;55.904;13.396;2023-03-23T08:33:09;8.40;;;7.53;;
13421;SDS011;6782;55.904;13.396;2023-03-23T08:35:57;9.33;;;6.83;;
13421;SDS011;6782;55.904;13.396;2023-03-23T08:38:45;6.63;;;5.97;;
13421;SDS011;6782;55.904;13.396;2023-03-23T08:41:32;8.20;;;6.07;;
13421;SDS011;6782;55.904;13.396;2023-03-23T08:44:19;7.37;;;5.30;;
13421;SDS011;6782;55.904;13.396;2023-03-23T08:47:07;6.47;;;5.00;;
13421;SDS011;6782;55.904;13.396;2023-03-23T08:49:54;4.97;;;4.47;;
13421;SDS011;6782;55.904;13.396;2023-03-23T08:52:41;6.70;;;4.53;;
13421;SDS011;6782;55.904;13.396;2023-03-23T08:55:29;4.33;;;3.87;;
13421;SDS011;6782;55.904;13.396;2023-03-23T08:58:16;4.30;;;3.37;;
13421;SDS011;6782;55.904;13.396;2023-03-23T09:01:05;3.20;;;2.90;;
13421;SDS011;6782;55.904;13.396;2023-03-23T09:03:55;3.07;;;2.20;;
13421;SDS011;6782;55.904;13.396;2023-03-23T09:06:42;3.93;;;2.30;;
13421;SDS011;6782;55.904;13.396;2023-03-23T09:09:29;3.90;;;2.80;;
13421;SDS011;6782;55.904;13.396;2023-03-23T09:12:17;2.57;;;1.97;;
13421;SDS011;6782;55.904;13.396;2023-03-23T09:15:05;3.27;;;2.10;;
13421;SDS011;6782;55.904;13.396;2023-03-23T09:17:54;3.10;;;1.77;;
13421;SDS011;6782;55.904;13.396;2023-03-23T09:20:43;2.97;;;1.87;;
13421;SDS011;6782;55.904;13.396;2023-03-23T09:23:31;2.20;;;1.50;;
13421;SDS011;6782;55.904;13.396;2023-03-23T09:26:19;2.37;;;1.47;;
13421;SDS011;6782;55.904;13.396;2023-03-23T09:29:06;2.10;;;1.40;;
13421;SDS011;6782;55.904;13.396;2023-03-23T09:31:54;1.73;;;1.33;;
13421;SDS011;6782;55.904;13.396;2023-03-23T09:34:43;2.07;;;1.33;;
13421;SDS011;6782;55.904;13.396;2023-03-23T09:37:34;1.80;;;1.40;;
13421;SDS011;6782;55.904;13.396;2023-03-23T09:40:23;1.50;;;1.40;;
13421;SDS011;6782;55.904;13.396;2023-03-23T09:43:19;2.10;;;1.17;;
13421;SDS011;6782;55.904;13.396;2023-03-23T09:46:16;2.53;;;1.20;;
13421;SDS011;6782;55.904;13.396;2023-03-23T09:49:07;1.60;;;1.47;;
13421;SDS011;6782;55.904;13.396;2023-03-23T09:51:56;2.77;;;1.40;;
13421;SDS011;6782;55.904;13.396;2023-03-23T09:54:46;2.23;;;1.40;;
13421;SDS011;6782;55.904;13.396;2023-03-23T09:57:36;2.10;;;1.40;;
13421;SDS011;6782;55.904;13.396;2023-03-23T10:00:26;1.50;;;1.23;;
13421;SDS011;6782;55.904;13.396;2023-03-23T10:03:17;2.43;;;1.40;;
13421;SDS011;6782;55.904;13.396;2023-03-23T10:06:05;2.17;;;1.50;;
13421;SDS011;6782;55.904;13.396;2023-03-23T10:08:55;2.03;;;1.40;;
13421;SDS011;6782;55.904;13.396;2023-03-23T10:11:48;1.60;;;1.47;;
13421;SDS011;6782;55.904;13.396;2023-03-23T10:14:43;3.13;;;1.50;;
13421;SDS011;6782;55.904;13.396;2023-03-23T10:17:35;2.30;;;1.57;;
13421;SDS011;6782;55.904;13.396;2023-03-23T10:20:27;2.17;;;1.60;;
13421;SDS011;6782;55.904;13.396;2023-03-23T10:23:31;1.70;;;1.20;;
13421;SDS011;6782;55.904;13.396;2023-03-23T10:26:24;2.87;;;1.40;;
13421;SDS011;6782;55.904;13.396;2023-03-23T10:29:15;2.10;;;1.60;;
13421;SDS011;6782;55.904;13.396;2023-03-23T10:32:04;2.23;;;1.40;;
13421;SDS011;6782;55.904;13.396;2023-03-23T10:34:56;2.63;;;1.53;;
13421;SDS011;6782;55.904;13.396;2023-03-23T10:37:46;1.33;;;1.00;;
13421;SDS011;6782;55.904;13.396;2023-03-23T10:40:34;1.50;;;1.20;;
13421;SDS011;6782;55.904;13.396;2023-03-23T10:43:25;2.00;;;1.40;;
13421;SDS011;6782;55.904;13.396;2023-03-23T10:46:16;1.60;;;1.50;;
13421;SDS011;6782;55.904;13.396;2023-03-23T10:49:08;1.60;;;1.50;;
13421;SDS011;6782;55.904;13.396;2023-03-23T10:51:59;2.57;;;1.93;;
13421;SDS011;6782;55.904;13.396;2023-03-23T10:54:50;1.70;;;1.60;;
13421;SDS011;6782;55.904;13.396;2023-03-23T10:57:39;3.20;;;2.00;;
13421;SDS011;6782;55.904;13.396;2023-03-23T11:00:27;2.83;;;2.40;;
13421;SDS011;6782;55.904;13.396;2023-03-23T11:06:22;5.47;;;4.07;;
13421;SDS011;6782;55.904;13.396;2023-03-23T11:09:10;5.67;;;4.73;;
13421;SDS011;6782;55.904;13.396;2023-03-23T11:11:58;5.30;;;4.90;;
13421;SDS011;6782;55.904;13.396;2023-03-23T11:14:45;8.23;;;5.50;;
13421;SDS011;6782;55.904;13.396;2023-03-23T11:17:33;6.97;;;5.93;;
13421;SDS011;6782;55.904;13.396;2023-03-23T11:20:21;7.73;;;7.03;;
13421;SDS011;6782;55.904;13.396;2023-03-23T11:23:13;8.20;;;7.43;;
13421;SDS011;6782;55.904;13.396;2023-03-23T11:26:11;9.27;;;8.37;;
13421;SDS011;6782;55.904;13.396;2023-03-23T11:29:03;11.90;;;10.53;;
13421;SDS011;6782;55.904;13.396;2023-03-23T11:31:52;13.73;;;10.93;;
13421;SDS011;6782;55.904;13.396;2023-03-23T11:34:41;8.40;;;7.50;;
13421;SDS011;6782;55.904;13.396;2023-03-23T11:37:29;7.77;;;6.83;;
13421;SDS011;6782;55.904;13.396;2023-03-23T11:40:21;7.53;;;6.87;;
13421;SDS011;6782;55.904;13.396;2023-03-23T11:43:12;8.87;;;7.97;;
13421;SDS011;6782;55.904;13.396;2023-03-23T11:46:02;8.77;;;7.97;;
13421;SDS011;6782;55.904;13.396;2023-03-23T11:48:51;8.37;;;6.70;;
13421;SDS011;6782;55.904;13.396;2023-03-23T11:51:42;9.97;;;8.90;;
13421;SDS011;6782;55.904;13.396;2023-03-23T11:54:32;12.20;;;10.73;;
13421;SDS011;6782;55.904;13.396;2023-03-23T11:57:22;13.50;;;12.10;;
13421;SDS011;6782;55.904;13.396;2023-03-23T12:00:14;11.47;;;10.00;;
13421;SDS011;6782;55.904;13.396;2023-03-23T12:03:02;8.60;;;7.77;;
13421;SDS011;6782;55.904;13.396;2023-03-23T12:05:53;10.10;;;8.23;;
13421;SDS011;6782;55.904;13.396;2023-03-23T12:08:50;10.17;;;7.57;;
13421;SDS011;6782;55.904;13.396;2023-03-23T12:11:41;7.20;;;6.20;;
13421;SDS011;6782;55.904;13.396;2023-03-23T12:14:37;8.43;;;6.03;;
13421;SDS011;6782;55.904;13.396;2023-03-23T12:17:31;8.47;;;6.73;;
13421;SDS011;6782;55.904;13.396;2023-03-23T12:20:24;8.33;;;6.50;;
13421;SDS011;6782;55.904;13.396;2023-03-23T12:23:18;9.17;;;7.60;;
13421;SDS011;6782;55.904;13.396;2023-03-23T12:26:09;6.77;;;6.10;;
13421;SDS011;6782;55.904;13.396;2023-03-23T12:29:15;8.20;;;6.13;;
13421;SDS011;6782;55.904;13.396;2023-03-23T12:32:16;9.87;;;7.67;;
13421;SDS011;6782;55.904;13.396;2023-03-23T12:35:10;6.40;;;5.77;;
13421;SDS011;6782;55.904;13.396;2023-03-23T12:38:02;7.43;;;5.83;;
13421;SDS011;6782;55.904;13.396;2023-03-23T12:40:55;6.63;;;5.30;;
13421;SDS011;6782;55.904;13.396;2023-03-23T12:43:48;8.23;;;5.03;;
13421;SDS011;6782;55.904;13.396;2023-03-23T12:46:52;9.63;;;5.90;;
13421;SDS011;6782;55.904;13.396;2023-03-23T12:49:45;8.17;;;5.23;;
13421;SDS011;6782;55.904;13.396;2023-03-23T12:52:35;10.00;;;4.43;;
13421;SDS011;6782;55.904;13.396;2023-03-23T12:55:25;6.67;;;4.47;;
13421;SDS011;6782;55.904;13.396;2023-03-23T12:58:15;5.40;;;3.50;;
13421;SDS011;6782;55.904;13.396;2023-03-23T13:01:04;7.40;;;3.27;;
13421;SDS011;6782;55.904;13.396;2023-03-23T13:03:56;6.30;;;2.97;;
13421;SDS011;6782;55.904;13.396;2023-03-23T13:06:45;7.30;;;3.43;;
13421;SDS011;6782;55.904;13.396;2023-03-23T13:09:36;9.30;;;3.10;;
13421;SDS011;6782;55.904;13.396;2023-03-23T13:12:23;6.70;;;2.50;;
13421;SDS011;6782;55.904;13.396;2023-03-23T13:15:17;7.80;;;2.77;;
13421;SDS011;6782;55.904;13.396;2023-03-23T13:18:08;6.90;;;3.13;;
13421;SDS011;6782;55.904;13.396;2023-03-23T13:20:59;7.27;;;2.77;;
13421;SDS011;6782;55.904;13.396;2023-03-23T13:23:52;6.67;;;2.70;;
13421;SDS011;6782;55.904;13.396;2023-03-23T13:26:41;8.47;;;2.97;;
13421;SDS011;6782;55.904;13.396;2023-03-23T13:29:29;10.47;;;3.13;;
13421;SDS011;6782;55.904;13.396;2023-03-23T13:32:17;7.50;;;3.27;;
13421;SDS011;6782;55.904;13.396;2023-03-23T13:35:11;7.00;;;2.80;;
13421;SDS011;6782;55.904;13.396;2023-03-23T13:38:01;8.90;;;3.23;;
13421;SDS011;6782;55.904;13.396;2023-03-23T13:40:49;8.77;;;3.30;;
13421;SDS011;6782;55.904;13.396;2023-03-23T13:43:38;11.57;;;3.80;;
13421;SDS011;6782;55.904;13.396;2023-03-23T13:46:27;9.93;;;3.00;;
13421;SDS011;6782;55.904;13.396;2023-03-23T13:49:23;8.70;;;2.83;;
13421;SDS011;6782;55.904;13.396;2023-03-23T13:52:16;9.67;;;3.30;;
13421;SDS011;6782;55.904;13.396;2023-03-23T13:55:29;9.23;;;2.97;;
13421;SDS011;6782;55.904;13.396;2023-03-23T13:58:23;9.20;;;3.07;;
13421;SDS011;6782;55.904;13.396;2023-03-23T14:01:11;8.53;;;3.00;;
13421;SDS011;6782;55.904;13.396;2023-03-23T14:04:03;8.27;;;2.67;;
13421;SDS011;6782;55.904;13.396;2023-03-23T14:06:51;11.30;;;2.73;;
13421;SDS011;6782;55.904;13.396;2023-03-23T14:09:41;7.77;;;2.77;;
13421;SDS011;6782;55.904;13.396;2023-03-23T14:12:30;6.77;;;2.73;;
13421;SDS011;6782;55.904;13.396;2023-03-23T14:15:20;8.07;;;2.67;;
13421;SDS011;6782;55.904;13.396;2023-03-23T14:18:11;7.60;;;2.60;;
13421;SDS011;6782;55.904;13.396;2023-03-23T14:21:00;9.30;;;3.07;;
13421;SDS011;6782;55.904;13.396;2023-03-23T14:23:47;8.77;;;2.70;;
13421;SDS011;6782;55.904;13.396;2023-03-23T14:26:36;9.97;;;3.10;;
13421;SDS011;6782;55.904;13.396;2023-03-23T14:29:23;10.37;;;2.90;;
13421;SDS011;6782;55.904;13.396;2023-03-23T14:32:14;10.63;;;2.87;;
13421;SDS011;6782;55.904;13.396;2023-03-23T14:35:04;8.20;;;2.30;;
13421;SDS011;6782;55.904;13.396;2023-03-23T14:37:52;8.20;;;2.80;;
13421;SDS011;6782;55.904;13.396;2023-03-23T14:40:40;8.67;;;3.40;;
13421;SDS011;6782;55.904;13.396;2023-03-23T14:43:27;8.60;;;2.90;;
13421;SDS011;6782;55.904;13.396;2023-03-23T14:46:14;9.57;;;3.53;;
13421;SDS011;6782;55.904;13.396;2023-03-23T14:49:05;8.63;;;2.97;;
13421;SDS011;6782;55.904;13.396;2023-03-23T14:51:53;10.10;;;3.50;;
13421;SDS011;6782;55.904;13.396;2023-03-23T14:54:41;10.00;;;3.93;;
13421;SDS011;6782;55.904;13.396;2023-03-23T14:57:28;10.00;;;2.97;;
13421;SDS011;6782;55.904;13.396;2023-03-23T15:00:17;8.93;;;2.70;;
13421;SDS011;6782;55.904;13.396;2023-03-23T15:03:05;10.00;;;2.97;;
13421;SDS011;6782;55.904;13.396;2023-03-23T15:05:56;10.47;;;2.50;;
13421;SDS011;6782;55.904;13.396;2023-03-23T15:08:43;8.27;;;2.93;;
13421;SDS011;6782;55.904;13.396;2023-03-23T15:11:32;7.40;;;2.63;;
13421;SDS011;6782;55.904;13.396;2023-03-23T15:14:20;6.90;;;2.87;;
13421;SDS011;6782;55.904;13.396;2023-03-23T15:17:09;10.03;;;2.73;;
13421;SDS011;6782;55.904;13.396;2023-03-23T15:20:00;10.30;;;3.17;;
13421;SDS011;6782;55.904;13.396;2023-03-23T15:22:55;8.70;;;2.83;;
13421;SDS011;6782;55.904;13.396;2023-03-23T15:25:47;9.90;;;2.93;;
13421;SDS011;6782;55.904;13.396;2023-03-23T15:28:38;11.00;;;2.70;;
13421;SDS011;6782;55.904;13.396;2023-03-23T15:31:26;7.63;;;2.60;;
13421;SDS011;6782;55.904;13.396;2023-03-23T15:34:18;10.60;;;2.20;;
13421;SDS011;6782;55.904;13.396;2023-03-23T15:37:16;8.63;;;2.60;;
13421;SDS011;6782;55.904;13.396;2023-03-23T15:40:13;6.23;;;2.40;;
13421;SDS011;6782;55.904;13.396;2023-03-23T15:43:14;7.83;;;2.80;;
13421;SDS011;6782;55.904;13.396;2023-03-23T15:46:04;6.37;;;2.23;;
13421;SDS011;6782;55.904;13.396;2023-03-23T15:48:52;7.97;;;2.60;;
13421;SDS011;6782;55.904;13.396;2023-03-23T15:51:40;7.63;;;2.10;;
13421;SDS011;6782;55.904;13.396;2023-03-23T15:54:29;6.77;;;2.00;;
13421;SDS011;6782;55.904;13.396;2023-03-23T15:57:18;11.63;;;2.90;;
13421;SDS011;6782;55.904;13.396;2023-03-23T16:00:06;8.93;;;2.43;;
13421;SDS011;6782;55.904;13.396;2023-03-23T16:02:55;8.03;;;2.30;;
13421;SDS011;6782;55.904;13.396;2023-03-23T16:05:44;8.80;;;2.73;;
13421;SDS011;6782;55.904;13.396;2023-03-23T16:08:31;7.87;;;3.23;;
13421;SDS011;6782;55.904;13.396;2023-03-23T16:11:26;8.93;;;2.60;;
13421;SDS011;6782;55.904;13.396;2023-03-23T16:14:14;11.60;;;3.40;;
13421;SDS011;6782;55.904;13.396;2023-03-23T16:17:01;9.93;;;3.00;;
13421;SDS011;6782;55.904;13.396;2023-03-23T16:19:49;8.43;;;2.97;;
13421;SDS011;6782;55.904;13.396;2023-03-23T16:22:37;10.70;;;3.47;;
13421;SDS011;6782;55.904;13.396;2023-03-23T16:25:24;10.33;;;3.90;;
13421;SDS011;6782;55.904;13.396;2023-03-23T16:28:12;15.27;;;4.90;;
13421;SDS011;6782;55.904;13.396;2023-03-23T16:31:03;13.17;;;4.83;;
13421;SDS011;6782;55.904;13.396;2023-03-23T16:33:51;14.17;;;4.07;;
13421;SDS011;6782;55.904;13.396;2023-03-23T16:36:38;14.87;;;4.83;;
13421;SDS011;6782;55.904;13.396;2023-03-23T16:39:25;12.40;;;4.90;;
13421;SDS011;6782;55.904;13.396;2023-03-23T16:42:12;13.33;;;4.20;;
13421;SDS011;6782;55.904;13.396;2023-03-23T16:45:00;13.00;;;4.07;;
13421;SDS011;6782;55.904;13.396;2023-03-23T16:47:48;15.27;;;4.90;;
13421;SDS011;6782;55.904;13.396;2023-03-23T16:50:36;12.73;;;4.33;;